Аэропорт: Павлодар. Павлодар

ICAO: UASP

METAR:
2020-10-19 15:00:00
UASP 191500Z 16004MPS CAVOK 01/M06 Q1026 R21/0///70 NOSIG RMK QFE758/1010
METAR:
2020-10-19 14:00:00
TAF UASP 191400Z 1915/1924 16006MPS CAVOK